ADDS METAR Data INFO
IDs: Format: Raw Decoded Include TAF

Data at: 1842 UTC 16 Dec 2017

PAMR 161753Z 36004KT 10SM SCT070 01/M01 A2916 RMK AO2 SLP877 T00061011 10017 21017 53002
PAMR 161653Z 30005KT 10SM CLR 00/M02 A2915 RMK AO2 SLP873 T00001017
PAMR 161553Z 00000KT 10SM FEW070 BKN090 00/M02 A2915 RMK AO2 SLP873 T00001017
PAMR 161453Z 00000KT 10SM SCT060 BKN090 00/M02 A2916 RMK AO2 SLP874 T00001017 51008
PAMR 161353Z 30006KT 10SM BKN070 01/M02 A2915 RMK AO2 SLP874 T00111017
PAMR 161253Z 36004KT 10SM BKN070 02/M02 A2914 RMK AO2 SLP869 T00171022
PAMR 161153Z 33008KT 10SM BKN080 01/M02 A2913 RMK AO2 SLP867 T00061022 10067 21006 53002
PAMR 161053Z VRB05G15KT 10SM BKN085 04/M03 A2913 RMK AO2 SLP865 T00441033
PAMR 160953Z 29005KT 10SM OVC085 02/M02 A2912 RMK AO2 SLP861 T00171017
PAMR 160853Z 31007KT 10SM FEW060 SCT070 OVC090 00/M02 A2913 RMK AO2 SLP865 T00001017 400061061 53000
PAMR 160753Z 29011KT 10SM FEW049 BKN070 BKN100 00/M02 A2912 RMK AO2 SLP864 T00001017
PAMR 160653Z 25011KT 10SM BKN065 BKN080 M01/M02 A2912 RMK AO2 SLP864 T10061017
PAMR 160553Z 29011G14KT 10SM SCT060 OVC075 00/M01 A2913 RMK AO2 SLP865 T00001011 10006 21022 56042
PAMR 160453Z 29006KT 10SM OVC065 00/M01 A2916 RMK AO2 SLP876 T00001011
PAMR 160353Z 12003KT 10SM SCT043 OVC050 M01/M02 A2921 RMK AO2 SLP892 T10111022
PAMR 160253Z 00000KT 10SM FEW047 OVC055 M02/M03 A2925 RMK AO2 SLP907 T10171028 58048
PAMR 160153Z 00000KT 10SM FEW047 OVC055 M02/M02 A2931 RMK AO2 SLP926 T10171022
PAMR 160053Z COR VRB04KT 10SM OVC060 M02/M02 A2935 RMK AO2 SLP940 T10171022
PAMR 152353Z 24003KT 10SM BKN075 M02/M03 A2939 RMK AO2 SLP955 T10171028 10006 21028 58036
PAMR 152253Z 29006KT 10SM OVC075 M02/M03 A2943 RMK AO2 SLP968 T10221028
PAMR 152153Z VRB03KT 10SM SCT070 OVC090 M02/M03 A2948 RMK AO2 SLP983 T10171028
PAMR 152053Z 24007KT 220V280 10SM OVC100 M01/M03 A2950 RMK AO2 SLP991 T10111028 58027
PAMR 151953Z 26003KT 10SM SCT045 M02/M03 A2953 RMK AO2 SLP002 T10221028
PAMR 151853Z 32007KT 10SM FEW040 SCT120 M02/M02 A2955 RMK AO2 SLP008 T10171022
PAMR 151753Z VRB03KT 10SM CLR M02/M03 A2958 RMK AO2 SLP018 I6001 T10221033 11011 21061 58018
PAMR 151653Z 00000KT 10SM CLR M04/M04 A2961 RMK AO2 SLP027 T10391044
PAMR 151553Z 00000KT 10SM CLR M05/M05 A2961 RMK AO2 SLP030 T10501050
PAMR 151453Z 32004KT 10SM CLR M04/M04 A2963 RMK AO2 SLP036 I1001 I3001 T10391044 58007
PAMR 151353Z 00000KT 10SM CLR M04/M05 A2964 RMK AO2 SLP039 I1000 T10441050
PAMR 151253Z 04003KT 10SM CLR M03/M03 A2966 RMK AO2 SLP046 I1000 T10331033
PAMR 151153Z 34005KT 10SM FEW050 M01/M02 A2965 RMK AO2 SLP043 4/000 T10111017 10017 21022 51014
PAMR 151053Z 32003KT 10SM BKN047 M01/M02 A2964 RMK AO2 SLP038 T10111022
PAMR 150953Z 00000KT 10SM OVC047 M01/M02 A2963 RMK AO2 SLP035 T10061017
PAMR 150853Z 10004KT 10SM SCT034 BKN044 OVC090 00/M01 A2961 RMK AO2 SLP029 T00001006 400171028 51018
PAMR 150753Z 08005KT 10SM SCT028 BKN095 OVC110 M01/M01 A2960 RMK AO2 SLP024 T10111011
PAMR 150653Z 10003KT 10SM OVC070 01/00 A2958 RMK AO2 SLP017 T00060000